<?xml version="1.0" encoding="utf-8"?>
<gpx xmlns:xsi="http://www.w3.org/2001/XMLSchema-instance" xmlns:xsd="http://www.w3.org/2001/XMLSchema" version="1.1" creator="Shapelink.com" xmlns="http://www.topografix.com/GPX/1/1" xmlns:gpxtpx="http://www.garmin.com/xmlschemas/TrackPointExtension/v1">
  <metadata>
    <name>Övrigt 6.08 km, 2019-05-25</name>
    <desc></desc>
    <author><name>Marian Moron</name></author> 
    <time>2019-05-25T18:48:38Z</time>
  </metadata>
  <trk>
    <name>Övrigt 6.08 km, 2019-05-25</name>
    <trkseg>
      <trkpt lat="51.229873649989" lon="4.458345937221">
        <ele>0</ele>
        <time>2019-05-25T18:48:38Z</time>
      </trkpt>
      <trkpt lat="51.229936514239" lon="4.458834015258">
        <ele>0</ele>
        <time>2019-05-25T18:48:59Z</time>
      </trkpt>
      <trkpt lat="51.22965982772" lon="4.459043227482">
        <ele>0</ele>
        <time>2019-05-25T18:49:24Z</time>
      </trkpt>
      <trkpt lat="51.229646751956" lon="4.45907776091">
        <ele>0</ele>
        <time>2019-05-25T18:49:26Z</time>
      </trkpt>
      <trkpt lat="51.229364030469" lon="4.459217403364">
        <ele>0</ele>
        <time>2019-05-25T18:49:48Z</time>
      </trkpt>
      <trkpt lat="51.229000256009" lon="4.459274651741">
        <ele>0</ele>
        <time>2019-05-25T18:50:21Z</time>
      </trkpt>
      <trkpt lat="51.228657520118" lon="4.45925294262">
        <ele>0</ele>
        <time>2019-05-25T18:50:53Z</time>
      </trkpt>
      <trkpt lat="51.228519805501" lon="4.45896460526">
        <ele>0</ele>
        <time>2019-05-25T18:51:24Z</time>
      </trkpt>
      <trkpt lat="51.228504634262" lon="4.458251221751">
        <ele>0</ele>
        <time>2019-05-25T18:52:04Z</time>
      </trkpt>
      <trkpt lat="51.228451073921" lon="4.457973361766">
        <ele>0</ele>
        <time>2019-05-25T18:52:17Z</time>
      </trkpt>
      <trkpt lat="51.228439590718" lon="4.457935559397">
        <ele>0</ele>
        <time>2019-05-25T18:52:20Z</time>
      </trkpt>
      <trkpt lat="51.228426934049" lon="4.457852075673">
        <ele>0</ele>
        <time>2019-05-25T18:52:24Z</time>
      </trkpt>
      <trkpt lat="51.228285447577" lon="4.457405320403">
        <ele>0</ele>
        <time>2019-05-25T18:52:54Z</time>
      </trkpt>
      <trkpt lat="51.228228366838" lon="4.457416971244">
        <ele>0</ele>
        <time>2019-05-25T18:53:00Z</time>
      </trkpt>
      <trkpt lat="51.227987471032" lon="4.457326111448">
        <ele>0.4</ele>
        <time>2019-05-25T18:53:41Z</time>
      </trkpt>
      <trkpt lat="51.22798260953" lon="4.457338013746">
        <ele>12</ele>
        <time>2019-05-25T18:53:55Z</time>
      </trkpt>
      <trkpt lat="51.227657559448" lon="4.457432645397">
        <ele>16.2</ele>
        <time>2019-05-25T18:54:27Z</time>
      </trkpt>
      <trkpt lat="51.227543984703" lon="4.457463909884">
        <ele>20.2</ele>
        <time>2019-05-25T18:54:40Z</time>
      </trkpt>
      <trkpt lat="51.227451867622" lon="4.457551333101">
        <ele>15.4</ele>
        <time>2019-05-25T18:54:56Z</time>
      </trkpt>
      <trkpt lat="51.227013410433" lon="4.45773917148">
        <ele>14.6</ele>
        <time>2019-05-25T18:55:36Z</time>
      </trkpt>
      <trkpt lat="51.226601523867" lon="4.458015857999">
        <ele>17.8</ele>
        <time>2019-05-25T18:56:16Z</time>
      </trkpt>
      <trkpt lat="51.226175388071" lon="4.45826304023">
        <ele>19.4</ele>
        <time>2019-05-25T18:56:53Z</time>
      </trkpt>
      <trkpt lat="51.22591311842" lon="4.458653888227">
        <ele>10.4</ele>
        <time>2019-05-25T18:57:21Z</time>
      </trkpt>
      <trkpt lat="51.225475834697" lon="4.458805013884">
        <ele>0.8</ele>
        <time>2019-05-25T18:58:00Z</time>
      </trkpt>
      <trkpt lat="51.225025978124" lon="4.458611140537">
        <ele>15.2</ele>
        <time>2019-05-25T18:58:42Z</time>
      </trkpt>
      <trkpt lat="51.224580312501" lon="4.458756566502">
        <ele>16.4</ele>
        <time>2019-05-25T18:59:25Z</time>
      </trkpt>
      <trkpt lat="51.224185022097" lon="4.45880367278">
        <ele>15.2</ele>
        <time>2019-05-25T18:59:59Z</time>
      </trkpt>
      <trkpt lat="51.223788390589" lon="4.459168872163">
        <ele>5</ele>
        <time>2019-05-25T19:00:39Z</time>
      </trkpt>
      <trkpt lat="51.223613460336" lon="4.459162166643">
        <ele>0</ele>
        <time>2019-05-25T19:01:09Z</time>
      </trkpt>
      <trkpt lat="51.223445235603" lon="4.459111791424">
        <ele>3.4</ele>
        <time>2019-05-25T19:01:19Z</time>
      </trkpt>
      <trkpt lat="51.223344568984" lon="4.459007688226">
        <ele>11.4</ele>
        <time>2019-05-25T19:01:25Z</time>
      </trkpt>
      <trkpt lat="51.222905441243" lon="4.459052196115">
        <ele>8.8</ele>
        <time>2019-05-25T19:02:04Z</time>
      </trkpt>
      <trkpt lat="51.222827657211" lon="4.459172308742">
        <ele>10</ele>
        <time>2019-05-25T19:02:18Z</time>
      </trkpt>
      <trkpt lat="51.222479556904" lon="4.45933592343">
        <ele>0</ele>
        <time>2019-05-25T19:02:53Z</time>
      </trkpt>
      <trkpt lat="51.2223189597" lon="4.459327625349">
        <ele>3.2</ele>
        <time>2019-05-25T19:03:26Z</time>
      </trkpt>
      <trkpt lat="51.221872120611" lon="4.459336174887">
        <ele>12</ele>
        <time>2019-05-25T19:04:04Z</time>
      </trkpt>
      <trkpt lat="51.221410110283" lon="4.459281860175">
        <ele>31.4</ele>
        <time>2019-05-25T19:04:38Z</time>
      </trkpt>
      <trkpt lat="51.220988919808" lon="4.459578244159">
        <ele>4.8</ele>
        <time>2019-05-25T19:05:22Z</time>
      </trkpt>
      <trkpt lat="51.220524981643" lon="4.459423681923">
        <ele>21</ele>
        <time>2019-05-25T19:05:47Z</time>
      </trkpt>
      <trkpt lat="51.220324654233" lon="4.459413791281">
        <ele>30.2</ele>
        <time>2019-05-25T19:05:58Z</time>
      </trkpt>
      <trkpt lat="51.220253408083" lon="4.459507417104">
        <ele>43.8</ele>
        <time>2019-05-25T19:06:06Z</time>
      </trkpt>
      <trkpt lat="51.220256425567" lon="4.459539519781">
        <ele>42.6</ele>
        <time>2019-05-25T19:06:08Z</time>
      </trkpt>
      <trkpt lat="51.220259778327" lon="4.459564581662">
        <ele>40.8</ele>
        <time>2019-05-25T19:06:10Z</time>
      </trkpt>
      <trkpt lat="51.220295904316" lon="4.459641611323">
        <ele>26.8</ele>
        <time>2019-05-25T19:06:18Z</time>
      </trkpt>
      <trkpt lat="51.220310824098" lon="4.459729285997">
        <ele>18.2</ele>
        <time>2019-05-25T19:06:27Z</time>
      </trkpt>
      <trkpt lat="51.220416436038" lon="4.460193140343">
        <ele>5.4</ele>
        <time>2019-05-25T19:06:49Z</time>
      </trkpt>
      <trkpt lat="51.220461363022" lon="4.460549874007">
        <ele>6.2</ele>
        <time>2019-05-25T19:07:12Z</time>
      </trkpt>
      <trkpt lat="51.220411490717" lon="4.460797223876">
        <ele>11.4</ele>
        <time>2019-05-25T19:07:27Z</time>
      </trkpt>
      <trkpt lat="51.220145784487" lon="4.46138613617">
        <ele>17.6</ele>
        <time>2019-05-25T19:08:06Z</time>
      </trkpt>
      <trkpt lat="51.220128433954" lon="4.461617979524">
        <ele>20.4</ele>
        <time>2019-05-25T19:08:21Z</time>
      </trkpt>
      <trkpt lat="51.220042016565" lon="4.462318957821">
        <ele>7.2</ele>
        <time>2019-05-25T19:09:05Z</time>
      </trkpt>
      <trkpt lat="51.220095409268" lon="4.46274651854">
        <ele>4</ele>
        <time>2019-05-25T19:09:29Z</time>
      </trkpt>
      <trkpt lat="51.2201061381" lon="4.462824805486">
        <ele>4.8</ele>
        <time>2019-05-25T19:09:35Z</time>
      </trkpt>
      <trkpt lat="51.220032209742" lon="4.46305329608">
        <ele>10</ele>
        <time>2019-05-25T19:09:50Z</time>
      </trkpt>
      <trkpt lat="51.219687629833" lon="4.463123452583">
        <ele>13.6</ele>
        <time>2019-05-25T19:10:53Z</time>
      </trkpt>
      <trkpt lat="51.219529379561" lon="4.463145413161">
        <ele>7.4</ele>
        <time>2019-05-25T19:11:06Z</time>
      </trkpt>
      <trkpt lat="51.219215393587" lon="4.463084895843">
        <ele>2.8</ele>
        <time>2019-05-25T19:12:13Z</time>
      </trkpt>
      <trkpt lat="51.218761513702" lon="4.463092942467">
        <ele>0</ele>
        <time>2019-05-25T19:12:52Z</time>
      </trkpt>
      <trkpt lat="51.218306711808" lon="4.463088751517">
        <ele>0</ele>
        <time>2019-05-25T19:13:31Z</time>
      </trkpt>
      <trkpt lat="51.21792349134" lon="4.463064444007">
        <ele>0</ele>
        <time>2019-05-25T19:14:07Z</time>
      </trkpt>
      <trkpt lat="51.217840259073" lon="4.463169972128">
        <ele>0</ele>
        <time>2019-05-25T19:14:20Z</time>
      </trkpt>
      <trkpt lat="51.217866745877" lon="4.463608764593">
        <ele>0</ele>
        <time>2019-05-25T19:14:50Z</time>
      </trkpt>
      <trkpt lat="51.217810251871" lon="4.464324746491">
        <ele>0</ele>
        <time>2019-05-25T19:15:35Z</time>
      </trkpt>
      <trkpt lat="51.217749902191" lon="4.465019438363">
        <ele>0</ele>
        <time>2019-05-25T19:16:27Z</time>
      </trkpt>
      <trkpt lat="51.217695000746" lon="4.465738773021">
        <ele>0</ele>
        <time>2019-05-25T19:17:09Z</time>
      </trkpt>
      <trkpt lat="51.217700784257" lon="4.466468249778">
        <ele>0</ele>
        <time>2019-05-25T19:17:46Z</time>
      </trkpt>
      <trkpt lat="51.217671615245" lon="4.467054312226">
        <ele>0</ele>
        <time>2019-05-25T19:18:22Z</time>
      </trkpt>
      <trkpt lat="51.217642865328" lon="4.467561752452">
        <ele>0</ele>
        <time>2019-05-25T19:18:59Z</time>
      </trkpt>
      <trkpt lat="51.217619060732" lon="4.468010938473">
        <ele>0</ele>
        <time>2019-05-25T19:19:28Z</time>
      </trkpt>
      <trkpt lat="51.21756223145" lon="4.468549727005">
        <ele>0</ele>
        <time>2019-05-25T19:20:02Z</time>
      </trkpt>
      <trkpt lat="51.217548652772" lon="4.468725998362">
        <ele>0</ele>
        <time>2019-05-25T19:20:14Z</time>
      </trkpt>
      <trkpt lat="51.217572205911" lon="4.468978712647">
        <ele>0</ele>
        <time>2019-05-25T19:20:31Z</time>
      </trkpt>
      <trkpt lat="51.217582934743" lon="4.46916453937">
        <ele>0</ele>
        <time>2019-05-25T19:20:53Z</time>
      </trkpt>
      <trkpt lat="51.217571954454" lon="4.46930703167">
        <ele>0</ele>
        <time>2019-05-25T19:21:03Z</time>
      </trkpt>
      <trkpt lat="51.217517220647" lon="4.470021001912">
        <ele>0</ele>
        <time>2019-05-25T19:21:49Z</time>
      </trkpt>
      <trkpt lat="51.217513197335" lon="4.470736564715">
        <ele>0</ele>
        <time>2019-05-25T19:22:29Z</time>
      </trkpt>
      <trkpt lat="51.217493248413" lon="4.470979723634">
        <ele>0</ele>
        <time>2019-05-25T19:22:45Z</time>
      </trkpt>
      <trkpt lat="51.217469862912" lon="4.471691179306">
        <ele>0</ele>
        <time>2019-05-25T19:23:35Z</time>
      </trkpt>
      <trkpt lat="51.217477406622" lon="4.472060150544">
        <ele>0</ele>
        <time>2019-05-25T19:24:07Z</time>
      </trkpt>
      <trkpt lat="51.217395180183" lon="4.472774958976">
        <ele>0</ele>
        <time>2019-05-25T19:24:47Z</time>
      </trkpt>
      <trkpt lat="51.217438598425" lon="4.473490857055">
        <ele>0</ele>
        <time>2019-05-25T19:25:31Z</time>
      </trkpt>
      <trkpt lat="51.21742644467" lon="4.473578028815">
        <ele>0</ele>
        <time>2019-05-25T19:25:37Z</time>
      </trkpt>
      <trkpt lat="51.217419655331" lon="4.473653130639">
        <ele>0</ele>
        <time>2019-05-25T19:25:43Z</time>
      </trkpt>
      <trkpt lat="51.217417476037" lon="4.473775925474">
        <ele>0</ele>
        <time>2019-05-25T19:25:52Z</time>
      </trkpt>
      <trkpt lat="51.217405657558" lon="4.474033752718">
        <ele>0</ele>
        <time>2019-05-25T19:26:10Z</time>
      </trkpt>
      <trkpt lat="51.217374393071" lon="4.47440993239">
        <ele>0</ele>
        <time>2019-05-25T19:26:31Z</time>
      </trkpt>
      <trkpt lat="51.217332651209" lon="4.475118873492">
        <ele>0</ele>
        <time>2019-05-25T19:27:11Z</time>
      </trkpt>
      <trkpt lat="51.217321754739" lon="4.475829323336">
        <ele>0</ele>
        <time>2019-05-25T19:27:52Z</time>
      </trkpt>
      <trkpt lat="51.217276827755" lon="4.476024956882">
        <ele>0</ele>
        <time>2019-05-25T19:28:23Z</time>
      </trkpt>
      <trkpt lat="51.217288646234" lon="4.476209777777">
        <ele>0</ele>
        <time>2019-05-25T19:28:35Z</time>
      </trkpt>
      <trkpt lat="51.217287472768" lon="4.476875971189">
        <ele>0</ele>
        <time>2019-05-25T19:29:17Z</time>
      </trkpt>
      <trkpt lat="51.217327035336" lon="4.476957610895">
        <ele>0</ele>
        <time>2019-05-25T19:29:51Z</time>
      </trkpt>
      <trkpt lat="51.217763061774" lon="4.477070179812">
        <ele>0</ele>
        <time>2019-05-25T19:30:28Z</time>
      </trkpt>
      <trkpt lat="51.217850233534" lon="4.477097420987">
        <ele>0</ele>
        <time>2019-05-25T19:30:40Z</time>
      </trkpt>
      <trkpt lat="51.217870769189" lon="4.477110832027">
        <ele>0</ele>
        <time>2019-05-25T19:30:42Z</time>
      </trkpt>
      <trkpt lat="51.217905470255" lon="4.477127595827">
        <ele>0</ele>
        <time>2019-05-25T19:30:45Z</time>
      </trkpt>
      <trkpt lat="51.218300090107" lon="4.477153579717">
        <ele>0</ele>
        <time>2019-05-25T19:31:21Z</time>
      </trkpt>
      <trkpt lat="51.218663529291" lon="4.477016368014">
        <ele>0</ele>
        <time>2019-05-25T19:32:14Z</time>
      </trkpt>
      <trkpt lat="51.218706612257" lon="4.476588555838">
        <ele>0</ele>
        <time>2019-05-25T19:32:43Z</time>
      </trkpt>
      <trkpt lat="51.218713317777" lon="4.476546730157">
        <ele>0</ele>
        <time>2019-05-25T19:32:46Z</time>
      </trkpt>
      <trkpt lat="51.218796298587" lon="4.475834771571">
        <ele>0</ele>
        <time>2019-05-25T19:33:24Z</time>
      </trkpt>
      <trkpt lat="51.218818175346" lon="4.475557498319">
        <ele>0</ele>
        <time>2019-05-25T19:33:39Z</time>
      </trkpt>
      <trkpt lat="51.218833346585" lon="4.475280727981">
        <ele>0</ele>
        <time>2019-05-25T19:33:55Z</time>
      </trkpt>
      <trkpt lat="51.218875758999" lon="4.474973698984">
        <ele>0</ele>
        <time>2019-05-25T19:34:20Z</time>
      </trkpt>
      <trkpt lat="51.218887661297" lon="4.474822405689">
        <ele>0</ele>
        <time>2019-05-25T19:34:31Z</time>
      </trkpt>
      <trkpt lat="51.218983885509" lon="4.474197954139">
        <ele>0</ele>
        <time>2019-05-25T19:35:10Z</time>
      </trkpt>
      <trkpt lat="51.219019592403" lon="4.473614657718">
        <ele>0</ele>
        <time>2019-05-25T19:35:46Z</time>
      </trkpt>
      <trkpt lat="51.219150769138" lon="4.473013759307">
        <ele>0</ele>
        <time>2019-05-25T19:36:21Z</time>
      </trkpt>
      <trkpt lat="51.21931404855" lon="4.472855760492">
        <ele>0</ele>
        <time>2019-05-25T19:36:45Z</time>
      </trkpt>
      <trkpt lat="51.2194272042" lon="4.472812258431">
        <ele>0.8</ele>
        <time>2019-05-25T19:37:11Z</time>
      </trkpt>
      <trkpt lat="51.219443716543" lon="4.472765738886">
        <ele>1.6</ele>
        <time>2019-05-25T19:37:14Z</time>
      </trkpt>
      <trkpt lat="51.219549747578" lon="4.472061910743">
        <ele>1.2</ele>
        <time>2019-05-25T19:37:53Z</time>
      </trkpt>
      <trkpt lat="51.219617557149" lon="4.471573832706">
        <ele>0.8</ele>
        <time>2019-05-25T19:38:23Z</time>
      </trkpt>
      <trkpt lat="51.219743537106" lon="4.470868160545">
        <ele>0.2</ele>
        <time>2019-05-25T19:39:00Z</time>
      </trkpt>
      <trkpt lat="51.219827942839" lon="4.470506565379">
        <ele>0.4</ele>
        <time>2019-05-25T19:39:20Z</time>
      </trkpt>
      <trkpt lat="51.219843952268" lon="4.470472283408">
        <ele>0</ele>
        <time>2019-05-25T19:39:23Z</time>
      </trkpt>
      <trkpt lat="51.21983959368" lon="4.470388548227">
        <ele>0</ele>
        <time>2019-05-25T19:39:33Z</time>
      </trkpt>
      <trkpt lat="51.219860967525" lon="4.4703354908">
        <ele>0</ele>
        <time>2019-05-25T19:39:37Z</time>
      </trkpt>
      <trkpt lat="51.219921401024" lon="4.470111861708">
        <ele>0</ele>
        <time>2019-05-25T19:39:56Z</time>
      </trkpt>
      <trkpt lat="51.219935734073" lon="4.469791002576">
        <ele>3.4</ele>
        <time>2019-05-25T19:41:06Z</time>
      </trkpt>
      <trkpt lat="51.219960460678" lon="4.469577599402">
        <ele>2.8</ele>
        <time>2019-05-25T19:41:19Z</time>
      </trkpt>
      <trkpt lat="51.220007566956" lon="4.469445416839">
        <ele>2.6</ele>
        <time>2019-05-25T19:41:50Z</time>
      </trkpt>
      <trkpt lat="51.220042687117" lon="4.469186583767">
        <ele>0.8</ele>
        <time>2019-05-25T19:42:06Z</time>
      </trkpt>
      <trkpt lat="51.220077052907" lon="4.469087342071">
        <ele>0.6</ele>
        <time>2019-05-25T19:42:15Z</time>
      </trkpt>
      <trkpt lat="51.22008518335" lon="4.469061022905">
        <ele>0.6</ele>
        <time>2019-05-25T19:42:17Z</time>
      </trkpt>
      <trkpt lat="51.220109993774" lon="4.468926409591">
        <ele>0</ele>
        <time>2019-05-25T19:42:27Z</time>
      </trkpt>
      <trkpt lat="51.220141090623" lon="4.46853170592">
        <ele>2.6</ele>
        <time>2019-05-25T19:43:26Z</time>
      </trkpt>
      <trkpt lat="51.220144611021" lon="4.468359541694">
        <ele>4</ele>
        <time>2019-05-25T19:43:48Z</time>
      </trkpt>
      <trkpt lat="51.220115442009" lon="4.46795838396">
        <ele>6</ele>
        <time>2019-05-25T19:44:18Z</time>
      </trkpt>
      <trkpt lat="51.220118794769" lon="4.467786722648">
        <ele>6</ele>
        <time>2019-05-25T19:44:27Z</time>
      </trkpt>
      <trkpt lat="51.220121728434" lon="4.467736012153">
        <ele>6</ele>
        <time>2019-05-25T19:44:30Z</time>
      </trkpt>
      <trkpt lat="51.220131535257" lon="4.467572229827">
        <ele>5.2</ele>
        <time>2019-05-25T19:44:44Z</time>
      </trkpt>
      <trkpt lat="51.220137821682" lon="4.467334351505">
        <ele>4.6</ele>
        <time>2019-05-25T19:45:05Z</time>
      </trkpt>
      <trkpt lat="51.220151903274" lon="4.466606132033">
        <ele>4</ele>
        <time>2019-05-25T19:45:45Z</time>
      </trkpt>
      <trkpt lat="51.220133966008" lon="4.466506555061">
        <ele>4.6</ele>
        <time>2019-05-25T19:45:53Z</time>
      </trkpt>
      <trkpt lat="51.220123488633" lon="4.466386107158">
        <ele>4</ele>
        <time>2019-05-25T19:46:13Z</time>
      </trkpt>
      <trkpt lat="51.220111418697" lon="4.465898615854">
        <ele>2</ele>
        <time>2019-05-25T19:46:45Z</time>
      </trkpt>
      <trkpt lat="51.220094068164" lon="4.46529880709">
        <ele>1</ele>
        <time>2019-05-25T19:47:24Z</time>
      </trkpt>
      <trkpt lat="51.220078561649" lon="4.4650548938">
        <ele>4</ele>
        <time>2019-05-25T19:47:40Z</time>
      </trkpt>
      <trkpt lat="51.220084177522" lon="4.464689694417">
        <ele>3.6</ele>
        <time>2019-05-25T19:48:01Z</time>
      </trkpt>
      <trkpt lat="51.220120471149" lon="4.464302366818">
        <ele>3.8</ele>
        <time>2019-05-25T19:48:29Z</time>
      </trkpt>
      <trkpt lat="51.22011032905" lon="4.464155599749">
        <ele>5.4</ele>
        <time>2019-05-25T19:48:42Z</time>
      </trkpt>
      <trkpt lat="51.220037825615" lon="4.463441545688">
        <ele>9</ele>
        <time>2019-05-25T19:49:25Z</time>
      </trkpt>
      <trkpt lat="51.22002315729" lon="4.463387063338">
        <ele>8.8</ele>
        <time>2019-05-25T19:49:28Z</time>
      </trkpt>
      <trkpt lat="51.219933387141" lon="4.462699076986">
        <ele>9.6</ele>
        <time>2019-05-25T19:50:07Z</time>
      </trkpt>
      <trkpt lat="51.219851915073" lon="4.461981753984">
        <ele>8.2</ele>
        <time>2019-05-25T19:50:35Z</time>
      </trkpt>
      <trkpt lat="51.219865996665" lon="4.4617105157">
        <ele>9</ele>
        <time>2019-05-25T19:50:54Z</time>
      </trkpt>
      <trkpt lat="51.219896339143" lon="4.461646645622">
        <ele>8.4</ele>
        <time>2019-05-25T19:50:58Z</time>
      </trkpt>
      <trkpt lat="51.219933890055" lon="4.461491664291">
        <ele>7.2</ele>
        <time>2019-05-25T19:51:06Z</time>
      </trkpt>
      <trkpt lat="51.219946546724" lon="4.46142720748">
        <ele>7.2</ele>
        <time>2019-05-25T19:51:10Z</time>
      </trkpt>
      <trkpt lat="51.220004214196" lon="4.461199135981">
        <ele>9</ele>
        <time>2019-05-25T19:51:25Z</time>
      </trkpt>
      <trkpt lat="51.220212001497" lon="4.460932843018">
        <ele>6</ele>
        <time>2019-05-25T19:51:51Z</time>
      </trkpt>
      <trkpt lat="51.220284002018" lon="4.46079940317">
        <ele>8.2</ele>
        <time>2019-05-25T19:51:59Z</time>
      </trkpt>
      <trkpt lat="51.220324821871" lon="4.460866206913">
        <ele>10.6</ele>
        <time>2019-05-25T19:52:04Z</time>
      </trkpt>
      <trkpt lat="51.220364552077" lon="4.460897219943">
        <ele>11.6</ele>
        <time>2019-05-25T19:52:07Z</time>
      </trkpt>
      <trkpt lat="51.220585666599" lon="4.461170805159">
        <ele>12.4</ele>
        <time>2019-05-25T19:52:25Z</time>
      </trkpt>
      <trkpt lat="51.220693625471" lon="4.461369204732">
        <ele>15.2</ele>
        <time>2019-05-25T19:52:41Z</time>
      </trkpt>
      <trkpt lat="51.22107173298" lon="4.461755694141">
        <ele>19.6</ele>
        <time>2019-05-25T19:53:23Z</time>
      </trkpt>
      <trkpt lat="51.221081120708" lon="4.461763656946">
        <ele>19.2</ele>
        <time>2019-05-25T19:53:24Z</time>
      </trkpt>
      <trkpt lat="51.221276921892" lon="4.461971276609">
        <ele>15</ele>
        <time>2019-05-25T19:53:50Z</time>
      </trkpt>
      <trkpt lat="51.221524858494" lon="4.462004636571">
        <ele>7.8</ele>
        <time>2019-05-25T19:54:18Z</time>
      </trkpt>
      <trkpt lat="51.221616221204" lon="4.462102704801">
        <ele>7.8</ele>
        <time>2019-05-25T19:54:32Z</time>
      </trkpt>
      <trkpt lat="51.221945378417" lon="4.46261995185">
        <ele>12.6</ele>
        <time>2019-05-25T19:55:10Z</time>
      </trkpt>
      <trkpt lat="51.222222986945" lon="4.462759761942">
        <ele>12.4</ele>
        <time>2019-05-25T19:55:39Z</time>
      </trkpt>
      <trkpt lat="51.222542840249" lon="4.463216826949">
        <ele>9.2</ele>
        <time>2019-05-25T19:56:18Z</time>
      </trkpt>
      <trkpt lat="51.222677285925" lon="4.463396031971">
        <ele>6.4</ele>
        <time>2019-05-25T19:57:54Z</time>
      </trkpt>
      <trkpt lat="51.222942237784" lon="4.46366685116">
        <ele>7.6</ele>
        <time>2019-05-25T19:58:30Z</time>
      </trkpt>
      <trkpt lat="51.223070313216" lon="4.463732649075">
        <ele>6.4</ele>
        <time>2019-05-25T19:58:49Z</time>
      </trkpt>
      <trkpt lat="51.223390250339" lon="4.463930629553">
        <ele>3.4</ele>
        <time>2019-05-25T19:59:34Z</time>
      </trkpt>
      <trkpt lat="51.223504747093" lon="4.464096758811">
        <ele>10.4</ele>
        <time>2019-05-25T19:59:53Z</time>
      </trkpt>
      <trkpt lat="51.223596109803" lon="4.464180158716">
        <ele>12.2</ele>
        <time>2019-05-25T20:00:10Z</time>
      </trkpt>
      <trkpt lat="51.223901881515" lon="4.464439075607">
        <ele>7.8</ele>
        <time>2019-05-25T20:00:49Z</time>
      </trkpt>
      <trkpt lat="51.223984107954" lon="4.464515602354">
        <ele>8.8</ele>
        <time>2019-05-25T20:01:01Z</time>
      </trkpt>
      <trkpt lat="51.224347882414" lon="4.464870659638">
        <ele>3.8</ele>
        <time>2019-05-25T20:01:50Z</time>
      </trkpt>
      <trkpt lat="51.224453410535" lon="4.464988509152">
        <ele>2</ele>
        <time>2019-05-25T20:02:03Z</time>
      </trkpt>
      <trkpt lat="51.224496744958" lon="4.465055564352">
        <ele>3</ele>
        <time>2019-05-25T20:02:15Z</time>
      </trkpt>
      <trkpt lat="51.224897148321" lon="4.465395618035">
        <ele>0.2</ele>
        <time>2019-05-25T20:02:54Z</time>
      </trkpt>
      <trkpt lat="51.225294282743" lon="4.46572628399">
        <ele>2</ele>
        <time>2019-05-25T20:03:33Z</time>
      </trkpt>
      <trkpt lat="51.225322697384" lon="4.46575813521">
        <ele>2.2</ele>
        <time>2019-05-25T20:03:37Z</time>
      </trkpt>
      <trkpt lat="51.225373743155" lon="4.465817898157">
        <ele>5.4</ele>
        <time>2019-05-25T20:04:05Z</time>
      </trkpt>
      <trkpt lat="51.225532831617" lon="4.465897945302">
        <ele>5.4</ele>
        <time>2019-05-25T20:04:28Z</time>
      </trkpt>
      <trkpt lat="51.225849667437" lon="4.466032055702">
        <ele>7</ele>
        <time>2019-05-25T20:04:55Z</time>
      </trkpt>
      <trkpt lat="51.225913621334" lon="4.466051082615">
        <ele>4.8</ele>
        <time>2019-05-25T20:05:02Z</time>
      </trkpt>
      <trkpt lat="51.226094335098" lon="4.466104726775">
        <ele>4.8</ele>
        <time>2019-05-25T20:05:20Z</time>
      </trkpt>
      <trkpt lat="51.226471436779" lon="4.466133225235">
        <ele>0</ele>
        <time>2019-05-25T20:05:51Z</time>
      </trkpt>
      <trkpt lat="51.22692565194" lon="4.466243111944">
        <ele>0.2</ele>
        <time>2019-05-25T20:06:28Z</time>
      </trkpt>
      <trkpt lat="51.227189933247" lon="4.466078072333">
        <ele>4.6</ele>
        <time>2019-05-25T20:07:02Z</time>
      </trkpt>
      <trkpt lat="51.22719974007" lon="4.465387319954">
        <ele>12.2</ele>
        <time>2019-05-25T20:07:42Z</time>
      </trkpt>
      <trkpt lat="51.227127236635" lon="4.464688018037">
        <ele>11.6</ele>
        <time>2019-05-25T20:08:23Z</time>
      </trkpt>
      <trkpt lat="51.227132265775" lon="4.464716851773">
        <ele>5.6</ele>
        <time>2019-05-25T20:08:58Z</time>
      </trkpt>
      <trkpt lat="51.227141821141" lon="4.464769238648">
        <ele>5</ele>
        <time>2019-05-25T20:09:02Z</time>
      </trkpt>
      <trkpt lat="51.227176103112" lon="4.464939977951">
        <ele>5.4</ele>
        <time>2019-05-25T20:09:13Z</time>
      </trkpt>
      <trkpt lat="51.227140647675" lon="4.464944085082">
        <ele>6.4</ele>
        <time>2019-05-25T20:09:19Z</time>
      </trkpt>
      <trkpt lat="51.227053978829" lon="4.46476739463">
        <ele>6.4</ele>
        <time>2019-05-25T20:09:32Z</time>
      </trkpt>
      <trkpt lat="51.227040986884" lon="4.464725066035">
        <ele>5.6</ele>
        <time>2019-05-25T20:09:35Z</time>
      </trkpt>
      <trkpt lat="51.227014248623" lon="4.464563379184">
        <ele>5.4</ele>
        <time>2019-05-25T20:09:54Z</time>
      </trkpt>
      <trkpt lat="51.22694325393" lon="4.463854354263">
        <ele>8.6</ele>
        <time>2019-05-25T20:10:33Z</time>
      </trkpt>
      <trkpt lat="51.226926406311" lon="4.463685039883">
        <ele>9.8</ele>
        <time>2019-05-25T20:10:46Z</time>
      </trkpt>
      <trkpt lat="51.226892543435" lon="4.463497033866">
        <ele>11.2</ele>
        <time>2019-05-25T20:11:02Z</time>
      </trkpt>
      <trkpt lat="51.226874103255" lon="4.463189334317">
        <ele>13.6</ele>
        <time>2019-05-25T20:11:20Z</time>
      </trkpt>
      <trkpt lat="51.226813837394" lon="4.463026976914">
        <ele>10.4</ele>
        <time>2019-05-25T20:11:30Z</time>
      </trkpt>
      <trkpt lat="51.226793469377" lon="4.462681223539">
        <ele>7.4</ele>
        <time>2019-05-25T20:11:48Z</time>
      </trkpt>
      <trkpt lat="51.226793385558" lon="4.462644510817">
        <ele>7</ele>
        <time>2019-05-25T20:11:50Z</time>
      </trkpt>
      <trkpt lat="51.226784081649" lon="4.462533283004">
        <ele>6.4</ele>
        <time>2019-05-25T20:11:59Z</time>
      </trkpt>
      <trkpt lat="51.226704285961" lon="4.461908915273">
        <ele>14.8</ele>
        <time>2019-05-25T20:12:40Z</time>
      </trkpt>
      <trkpt lat="51.226639745331" lon="4.461617141334">
        <ele>15.4</ele>
        <time>2019-05-25T20:13:00Z</time>
      </trkpt>
      <trkpt lat="51.226608313206" lon="4.461489987911">
        <ele>16</ele>
        <time>2019-05-25T20:13:08Z</time>
      </trkpt>
      <trkpt lat="51.226507981863" lon="4.461244649698">
        <ele>6.8</ele>
        <time>2019-05-25T20:13:30Z</time>
      </trkpt>
      <trkpt lat="51.226483758172" lon="4.461127386917">
        <ele>4.6</ele>
        <time>2019-05-25T20:13:45Z</time>
      </trkpt>
      <trkpt lat="51.226457019911" lon="4.461058152423">
        <ele>2.4</ele>
        <time>2019-05-25T20:13:49Z</time>
      </trkpt>
      <trkpt lat="51.226377308042" lon="4.460718685473">
        <ele>0.2</ele>
        <time>2019-05-25T20:14:14Z</time>
      </trkpt>
      <trkpt lat="51.226243281461" lon="4.460037572279">
        <ele>0</ele>
        <time>2019-05-25T20:14:50Z</time>
      </trkpt>
      <trkpt lat="51.22625677632" lon="4.459920560955">
        <ele>1</ele>
        <time>2019-05-25T20:14:56Z</time>
      </trkpt>
      <trkpt lat="51.226323747701" lon="4.459937911488">
        <ele>0.6</ele>
        <time>2019-05-25T20:15:05Z</time>
      </trkpt>
      <trkpt lat="51.22635316817" lon="4.459916202367">
        <ele>1.2</ele>
        <time>2019-05-25T20:15:08Z</time>
      </trkpt>
      <trkpt lat="51.226385438485" lon="4.459778403931">
        <ele>0.4</ele>
        <time>2019-05-25T20:15:16Z</time>
      </trkpt>
      <trkpt lat="51.226345037727" lon="4.459554858658">
        <ele>1</ele>
        <time>2019-05-25T20:15:30Z</time>
      </trkpt>
      <trkpt lat="51.226365070468" lon="4.459543123998">
        <ele>2.4</ele>
        <time>2019-05-25T20:15:33Z</time>
      </trkpt>
      <trkpt lat="51.226493481176" lon="4.459487468182">
        <ele>9</ele>
        <time>2019-05-25T20:15:48Z</time>
      </trkpt>
      <trkpt lat="51.226920287524" lon="4.459228132196">
        <ele>6</ele>
        <time>2019-05-25T20:16:24Z</time>
      </trkpt>
      <trkpt lat="51.227205355943" lon="4.459050352097">
        <ele>10.2</ele>
        <time>2019-05-25T20:16:55Z</time>
      </trkpt>
      <trkpt lat="51.227628138979" lon="4.458780119641">
        <ele>8.4</ele>
        <time>2019-05-25T20:17:29Z</time>
      </trkpt>
      <trkpt lat="51.227654793421" lon="4.458758745796">
        <ele>7</ele>
        <time>2019-05-25T20:17:31Z</time>
      </trkpt>
      <trkpt lat="51.227717992947" lon="4.458713064441">
        <ele>3.2</ele>
        <time>2019-05-25T20:17:35Z</time>
      </trkpt>
      <trkpt lat="51.227853360632" lon="4.458634526038">
        <ele>0</ele>
        <time>2019-05-25T20:18:07Z</time>
      </trkpt>
      <trkpt lat="51.227903316756" lon="4.458613822745">
        <ele>0</ele>
        <time>2019-05-25T20:18:13Z</time>
      </trkpt>
      <trkpt lat="51.228333727321" lon="4.458341327176">
        <ele>1.8</ele>
        <time>2019-05-25T20:18:55Z</time>
      </trkpt>
      <trkpt lat="51.228715019952" lon="4.458248455724">
        <ele>0</ele>
        <time>2019-05-25T20:19:24Z</time>
      </trkpt>
      <trkpt lat="51.228786517559" lon="4.458218699979">
        <ele>0</ele>
        <time>2019-05-25T20:19:30Z</time>
      </trkpt>
      <trkpt lat="51.228950299885" lon="4.458125157975">
        <ele>0</ele>
        <time>2019-05-25T20:19:45Z</time>
      </trkpt>
      <trkpt lat="51.228992879937" lon="4.458113590953">
        <ele>0</ele>
        <time>2019-05-25T20:19:48Z</time>
      </trkpt>
      <trkpt lat="51.229434773705" lon="4.457939415071">
        <ele>2.6</ele>
        <time>2019-05-25T20:20:27Z</time>
      </trkpt>
      <trkpt lat="51.229590509407" lon="4.457880490314">
        <ele>0.8</ele>
        <time>2019-05-25T20:20:41Z</time>
      </trkpt>
      <trkpt lat="51.229674496045" lon="4.457869677663">
        <ele>2.6</ele>
        <time>2019-05-25T20:20:50Z</time>
      </trkpt>
    </trkseg>
  </trk>
</gpx>